CKK8667 ZYCC-ZSJN
Flight info
| Callsign | CKK8667 |
|---|---|
| Flight time | N/A |
| Altitude | 36100 |
| Route | LEMOT3D LEMOT A588 UDETI W106 MAKNO W5 HCH W4 BASOV BASOV8X |
| Aircraft | B77L/H-SDE1E2E3FGHIJ2J3J4J5M1RWXY/LB1D1 |
Departure
| Time | 2026-04-28 11:24 |
|---|---|
| Airport | Changchun Longjia International Airport (ZYCC) |
Arrival
| Time | N/A |
|---|---|
| Airport | Jinan Yaoqiang International Airport (ZSJN) |
| Time | Latitude | Longitude | Altitude | Speed | Heading |
|---|---|---|---|---|---|
| 2026-04-28 11:06 | 43.98760 | 125.67935 | 718 ft | 0 kts | 153° |
| 2026-04-28 11:18 | 43.98775 | 125.67926 | 721 ft | 4 kts | 176° |
| 2026-04-28 11:18 | 43.98789 | 125.67918 | 722 ft | 4 kts | 140° |
| 2026-04-28 11:18 | 43.98809 | 125.67894 | 721 ft | 4 kts | 140° |
| 2026-04-28 11:19 | 43.98835 | 125.67864 | 721 ft | 1 kts | 140° |
| 2026-04-28 11:19 | 43.98839 | 125.67860 | 720 ft | 1 kts | 140° |
| 2026-04-28 11:19 | 43.98829 | 125.67873 | 721 ft | 8 kts | 133° |
| 2026-04-28 11:19 | 43.98839 | 125.67932 | 720 ft | 0 kts | 55° |
| 2026-04-28 11:20 | 43.98882 | 125.68019 | 723 ft | 5 kts | 55° |
| 2026-04-28 11:20 | 43.98923 | 125.68069 | 721 ft | 5 kts | 31° |
| 2026-04-28 11:20 | 43.99003 | 125.68055 | 723 ft | 18 kts | 323° |
| 2026-04-28 11:20 | 43.99039 | 125.67917 | 722 ft | 17 kts | 232° |
| 2026-04-28 11:21 | 43.98977 | 125.67819 | 720 ft | 21 kts | 229° |
| 2026-04-28 11:21 | 43.98945 | 125.67766 | 721 ft | 3 kts | 230° |
| 2026-04-28 11:21 | 43.98883 | 125.67665 | 723 ft | 24 kts | 230° |
| 2026-04-28 11:21 | 43.98768 | 125.67477 | 720 ft | 22 kts | 229° |
| 2026-04-28 11:22 | 43.98652 | 125.67292 | 722 ft | 27 kts | 229° |
| 2026-04-28 11:22 | 43.98608 | 125.67137 | 722 ft | 16 kts | 312° |
| 2026-04-28 11:22 | 43.98623 | 125.67115 | 721 ft | 0 kts | 313° |
| 2026-04-28 11:23 | 43.98685 | 125.67039 | 724 ft | 15 kts | 338° |
| 2026-04-28 11:23 | 43.98785 | 125.67134 | 725 ft | 35 kts | 48° |
| 2026-04-28 11:23 | 43.99279 | 125.67940 | 725 ft | 129 kts | 49° |
| 2026-04-28 11:24 | 43.99743 | 125.68672 | 724 ft | 167 kts | 52° |
| 2026-04-28 11:24 | 44.00911 | 125.70555 | 899 ft | 210 kts | 49° |
| 2026-04-28 11:24 | 44.01567 | 125.71618 | 1147 ft | 225 kts | 49° |
| 2026-04-28 11:24 | 44.02247 | 125.72725 | 1709 ft | 219 kts | 48° |
| 2026-04-28 11:25 | 44.03416 | 125.74625 | 3705 ft | 177 kts | 47° |
| 2026-04-28 11:25 | 44.04551 | 125.76448 | 4465 ft | 205 kts | 47° |
| 2026-04-28 11:25 | 44.05204 | 125.77496 | 4688 ft | 226 kts | 47° |
| 2026-04-28 11:25 | 44.06302 | 125.79260 | 5091 ft | 253 kts | 47° |
| 2026-04-28 11:26 | 44.07464 | 125.81133 | 6045 ft | 260 kts | 47° |
| 2026-04-28 11:26 | 44.09040 | 125.83683 | 7368 ft | 265 kts | 47° |
| 2026-04-28 11:26 | 44.09841 | 125.84981 | 8021 ft | 267 kts | 47° |
| 2026-04-28 11:26 | 44.11479 | 125.87635 | 9359 ft | 273 kts | 47° |
| 2026-04-28 11:27 | 44.12305 | 125.88975 | 10011 ft | 276 kts | 46° |
| 2026-04-28 11:27 | 44.13999 | 125.91722 | 10860 ft | 297 kts | 47° |
| 2026-04-28 11:27 | 44.14924 | 125.93219 | 10998 ft | 317 kts | 47° |
| 2026-04-28 11:27 | 44.16423 | 125.95652 | 11245 ft | 346 kts | 47° |
| 2026-04-28 11:28 | 44.18046 | 125.98289 | 11582 ft | 369 kts | 47° |
| 2026-04-28 11:28 | 44.19970 | 126.00667 | 12081 ft | 377 kts | 29° |
| 2026-04-28 11:28 | 44.23276 | 126.02219 | 13258 ft | 383 kts | 4° |
| 2026-04-28 11:28 | 44.25049 | 126.02193 | 13896 ft | 385 kts | 352° |
| 2026-04-28 11:29 | 44.28380 | 126.00459 | 15040 ft | 390 kts | 326° |
| 2026-04-28 11:29 | 44.30359 | 125.97859 | 15874 ft | 397 kts | 308° |
| 2026-04-28 11:29 | 44.31668 | 125.94454 | 16715 ft | 404 kts | 290° |
| 2026-04-28 11:29 | 44.32119 | 125.91902 | 17264 ft | 410 kts | 279° |
| 2026-04-28 11:30 | 44.32117 | 125.87897 | 18056 ft | 420 kts | 263° |
| 2026-04-28 11:30 | 44.29566 | 125.80493 | 19438 ft | 441 kts | 227° |
| 2026-04-28 11:30 | 44.26085 | 125.77448 | 20309 ft | 454 kts | 200° |
| 2026-04-28 11:31 | 44.23150 | 125.76409 | 20986 ft | 458 kts | 192° |
| 2026-04-28 11:31 | 44.21056 | 125.75860 | 21414 ft | 461 kts | 192° |
| 2026-04-28 11:31 | 44.17010 | 125.73932 | 22122 ft | 466 kts | 211° |
| 2026-04-28 11:31 | 44.14419 | 125.71263 | 22742 ft | 467 kts | 225° |
| 2026-04-28 11:32 | 44.12929 | 125.69100 | 23202 ft | 467 kts | 231° |
| 2026-04-28 11:32 | 44.10848 | 125.65590 | 23784 ft | 470 kts | 233° |
| 2026-04-28 11:32 | 44.08783 | 125.62051 | 24270 ft | 475 kts | 232° |
| 2026-04-28 11:32 | 44.05595 | 125.57833 | 24678 ft | 485 kts | 213° |
| 2026-04-28 11:33 | 44.02469 | 125.56033 | 25133 ft | 492 kts | 194° |
| 2026-04-28 11:33 | 43.99066 | 125.55563 | 25713 ft | 495 kts | 178° |
| 2026-04-28 11:33 | 43.95659 | 125.56051 | 26114 ft | 496 kts | 173° |
| 2026-04-28 11:33 | 43.93375 | 125.56427 | 26363 ft | 499 kts | 174° |
| 2026-04-28 11:34 | 43.88755 | 125.57115 | 26856 ft | 504 kts | 175° |
| 2026-04-28 11:34 | 43.86426 | 125.57423 | 27150 ft | 506 kts | 175° |
| 2026-04-28 11:34 | 43.82919 | 125.57859 | 27550 ft | 508 kts | 175° |
| 2026-04-28 11:34 | 43.79390 | 125.58288 | 27930 ft | 511 kts | 175° |
| 2026-04-28 11:35 | 43.75853 | 125.58725 | 28295 ft | 513 kts | 175° |
| 2026-04-28 11:35 | 43.71106 | 125.59320 | 28736 ft | 516 kts | 175° |
| 2026-04-28 11:35 | 43.68722 | 125.59620 | 28951 ft | 518 kts | 175° |
| 2026-04-28 11:35 | 43.63954 | 125.60217 | 29535 ft | 516 kts | 175° |
| 2026-04-28 11:36 | 43.60396 | 125.60597 | 30068 ft | 512 kts | 179° |
| 2026-04-28 11:36 | 43.56863 | 125.60309 | 30424 ft | 510 kts | 189° |
| 2026-04-28 11:36 | 43.53412 | 125.59256 | 30713 ft | 509 kts | 198° |
| 2026-04-28 11:36 | 43.50112 | 125.57553 | 31030 ft | 507 kts | 207° |
| 2026-04-28 11:37 | 43.48039 | 125.56047 | 31259 ft | 505 kts | 211° |
| 2026-04-28 11:37 | 43.44970 | 125.53710 | 31623 ft | 505 kts | 210° |
| 2026-04-28 11:37 | 43.41878 | 125.51433 | 31933 ft | 505 kts | 210° |
| 2026-04-28 11:37 | 43.38766 | 125.49213 | 32245 ft | 505 kts | 209° |
| 2026-04-28 11:38 | 43.35647 | 125.47021 | 32585 ft | 504 kts | 209° |
| 2026-04-28 11:38 | 43.31502 | 125.44123 | 33045 ft | 503 kts | 209° |
| 2026-04-28 11:38 | 43.29429 | 125.42672 | 33236 ft | 503 kts | 209° |
| 2026-04-28 11:38 | 43.25271 | 125.39755 | 33664 ft | 503 kts | 210° |
| 2026-04-28 11:39 | 43.23196 | 125.38297 | 33891 ft | 502 kts | 210° |
| 2026-04-28 11:39 | 43.20100 | 125.36121 | 34188 ft | 501 kts | 210° |
| 2026-04-28 11:39 | 43.15976 | 125.33224 | 34547 ft | 500 kts | 210° |
| 2026-04-28 11:39 | 43.12891 | 125.31061 | 34797 ft | 499 kts | 210° |
| 2026-04-28 11:40 | 43.09800 | 125.28897 | 35051 ft | 499 kts | 210° |
| 2026-04-28 11:40 | 43.06722 | 125.26743 | 35304 ft | 498 kts | 210° |
| 2026-04-28 11:40 | 43.04674 | 125.25312 | 35465 ft | 497 kts | 210° |
| 2026-04-28 11:40 | 43.00576 | 125.22451 | 35764 ft | 497 kts | 210° |
| 2026-04-28 11:41 | 42.98526 | 125.21030 | 35912 ft | 497 kts | 209° |
| 2026-04-28 11:41 | 42.94167 | 125.18853 | 35995 ft | 507 kts | 197° |
| 2026-04-28 11:41 | 42.88365 | 125.17764 | 36053 ft | 504 kts | 184° |
| 2026-04-28 11:42 | 42.84903 | 125.17863 | 36059 ft | 492 kts | 186° |
| 2026-04-28 11:42 | 42.81555 | 125.17277 | 36060 ft | 482 kts | 199° |
| 2026-04-28 11:42 | 42.74622 | 125.12901 | 36084 ft | 469 kts | 213° |
| 2026-04-28 11:43 | 42.68853 | 125.08733 | 36072 ft | 471 kts | 211° |
| 2026-04-28 11:43 | 42.63026 | 125.04689 | 36080 ft | 472 kts | 211° |
| 2026-04-28 11:44 | 42.57181 | 125.00634 | 36074 ft | 473 kts | 211° |
| 2026-04-28 11:44 | 42.52314 | 124.97245 | 36079 ft | 473 kts | 211° |
| 2026-04-28 11:45 | 42.45502 | 124.92500 | 36077 ft | 473 kts | 211° |
| 2026-04-28 11:45 | 42.39665 | 124.88443 | 36080 ft | 473 kts | 212° |
| 2026-04-28 11:46 | 42.34795 | 124.85066 | 36071 ft | 472 kts | 212° |
| 2026-04-28 11:46 | 42.28002 | 124.80364 | 36076 ft | 471 kts | 212° |
| 2026-04-28 11:47 | 42.22187 | 124.76349 | 36078 ft | 470 kts | 212° |
| 2026-04-28 11:47 | 42.17355 | 124.73019 | 36082 ft | 469 kts | 212° |
| 2026-04-28 11:48 | 42.10599 | 124.68372 | 36083 ft | 467 kts | 212° |
| 2026-04-28 11:48 | 42.04828 | 124.64409 | 36083 ft | 466 kts | 212° |
| 2026-04-28 11:49 | 41.99059 | 124.60458 | 36087 ft | 465 kts | 212° |
| 2026-04-28 11:49 | 41.93384 | 124.56356 | 36099 ft | 463 kts | 215° |
| 2026-04-28 11:50 | 41.87834 | 124.52039 | 36092 ft | 462 kts | 216° |
| 2026-04-28 11:50 | 41.83205 | 124.48450 | 36095 ft | 462 kts | 215° |
| 2026-04-28 11:51 | 41.76707 | 124.43484 | 36092 ft | 462 kts | 215° |
| 2026-04-28 11:51 | 41.72061 | 124.39958 | 36094 ft | 461 kts | 215° |
| 2026-04-28 11:52 | 41.65568 | 124.35042 | 36098 ft | 460 kts | 215° |
| 2026-04-28 11:52 | 41.60010 | 124.30841 | 36097 ft | 459 kts | 216° |
| 2026-04-28 11:53 | 41.55392 | 124.27355 | 36096 ft | 459 kts | 216° |
| 2026-04-28 11:53 | 41.49853 | 124.23181 | 36099 ft | 457 kts | 216° |
| 2026-04-28 11:54 | 41.44334 | 124.19031 | 36104 ft | 456 kts | 216° |
| 2026-04-28 11:54 | 41.37899 | 124.14233 | 36100 ft | 454 kts | 216° |
| 2026-04-28 11:55 | 41.32360 | 124.10230 | 36102 ft | 454 kts | 216° |
| 2026-04-28 11:55 | 41.26827 | 124.06244 | 36102 ft | 452 kts | 216° |
| 2026-04-28 11:56 | 41.22239 | 124.02934 | 36108 ft | 451 kts | 216° |
| 2026-04-28 11:56 | 41.15820 | 123.98307 | 36108 ft | 451 kts | 216° |
| 2026-04-28 11:57 | 41.10313 | 123.94342 | 36104 ft | 450 kts | 216° |
| 2026-04-28 11:57 | 41.05738 | 123.91053 | 36115 ft | 450 kts | 216° |
| 2026-04-28 11:58 | 41.00257 | 123.87122 | 36114 ft | 448 kts | 217° |
| 2026-04-28 11:58 | 40.94795 | 123.83211 | 36105 ft | 447 kts | 217° |
| 2026-04-28 11:59 | 40.89354 | 123.79322 | 36115 ft | 444 kts | 217° |
| 2026-04-28 11:59 | 40.84057 | 123.75543 | 36112 ft | 443 kts | 217° |
| 2026-04-28 12:00 | 40.77800 | 123.70990 | 36117 ft | 440 kts | 218° |
| 2026-04-28 12:00 | 40.72480 | 123.67063 | 36119 ft | 439 kts | 218° |
| 2026-04-28 12:01 | 40.68055 | 123.63810 | 36110 ft | 438 kts | 218° |
| 2026-04-28 12:01 | 40.62747 | 123.59925 | 36118 ft | 437 kts | 218° |
| 2026-04-28 12:02 | 40.57466 | 123.56068 | 36113 ft | 435 kts | 219° |
| 2026-04-28 12:02 | 40.52187 | 123.52221 | 36126 ft | 433 kts | 219° |
| 2026-04-28 12:03 | 40.46062 | 123.47762 | 36126 ft | 432 kts | 219° |
| 2026-04-28 12:03 | 40.40819 | 123.43950 | 36124 ft | 431 kts | 219° |
| 2026-04-28 12:04 | 40.35587 | 123.40154 | 36126 ft | 430 kts | 219° |
| 2026-04-28 12:04 | 40.31241 | 123.37006 | 36118 ft | 429 kts | 219° |
| 2026-04-28 12:05 | 40.25174 | 123.32619 | 36125 ft | 427 kts | 220° |
| 2026-04-28 12:05 | 40.20859 | 123.29504 | 36129 ft | 425 kts | 220° |
| 2026-04-28 12:06 | 40.15695 | 123.25781 | 36129 ft | 423 kts | 220° |
| 2026-04-28 12:06 | 40.09696 | 123.21463 | 36126 ft | 422 kts | 220° |
| 2026-04-28 12:07 | 40.05422 | 123.18394 | 36123 ft | 421 kts | 220° |
| 2026-04-28 12:07 | 40.00320 | 123.14706 | 36135 ft | 418 kts | 221° |
| 2026-04-28 12:08 | 39.94422 | 123.10409 | 36134 ft | 416 kts | 221° |
| 2026-04-28 12:08 | 39.90230 | 123.07357 | 36132 ft | 415 kts | 221° |
| 2026-04-28 12:09 | 39.84432 | 123.03148 | 36134 ft | 413 kts | 221° |
| 2026-04-28 12:09 | 39.79435 | 122.99530 | 36137 ft | 411 kts | 221° |
| 2026-04-28 12:10 | 39.74456 | 122.95931 | 36145 ft | 410 kts | 222° |
| 2026-04-28 12:10 | 39.70315 | 122.92941 | 36151 ft | 409 kts | 222° |
| 2026-04-28 12:11 | 39.65353 | 122.89364 | 36155 ft | 409 kts | 222° |
| 2026-04-28 12:11 | 39.59562 | 122.85197 | 36146 ft | 408 kts | 222° |
| 2026-04-28 12:12 | 39.55441 | 122.82238 | 36146 ft | 407 kts | 222° |
| 2026-04-28 12:12 | 39.50505 | 122.78699 | 36141 ft | 406 kts | 222° |
| 2026-04-28 12:13 | 39.45582 | 122.75174 | 36142 ft | 404 kts | 223° |
| 2026-04-28 12:13 | 39.40678 | 122.71667 | 36149 ft | 403 kts | 223° |
| 2026-04-28 12:14 | 39.34961 | 122.67586 | 36163 ft | 403 kts | 223° |
| 2026-04-28 12:14 | 39.30062 | 122.64094 | 36164 ft | 403 kts | 223° |
| 2026-04-28 12:15 | 39.25988 | 122.61189 | 36166 ft | 401 kts | 224° |
| 2026-04-28 12:15 | 39.20492 | 122.56837 | 36167 ft | 397 kts | 226° |
| 2026-04-28 12:16 | 39.15829 | 122.53038 | 36171 ft | 398 kts | 225° |
| 2026-04-28 12:16 | 39.11924 | 122.49894 | 36168 ft | 399 kts | 225° |
| 2026-04-28 12:17 | 39.06426 | 122.45506 | 36171 ft | 400 kts | 225° |
| 2026-04-28 12:17 | 39.02490 | 122.42376 | 36177 ft | 400 kts | 225° |
| 2026-04-28 12:18 | 38.97759 | 122.38617 | 36182 ft | 401 kts | 225° |
| 2026-04-28 12:18 | 38.93019 | 122.34855 | 36185 ft | 402 kts | 225° |
| 2026-04-28 12:19 | 38.87477 | 122.30464 | 36175 ft | 402 kts | 225° |
| 2026-04-28 12:19 | 38.85893 | 122.29208 | 36182 ft | 402 kts | 225° |